CFR weather

Caen-Carpiquet Airport
Caen/Carpiquet, Normandy, France

Public forecast

Using degrees Celsius for public forecast. Weather courtesy of forecast.io.

Current aviation weather report (METAR) for Caen-Carpiquet Airport

Retrieved 2020/07/11 15:00 UTC (39 seconds ago):

LFRK 111500Z AUTO 01010KT 340V040 CAVOK 19/07 Q1028 TEMPO 34015G25KT

Aviation forecast (TAF) for Caen-Carpiquet Airport

Forecast is more than 12 hours old.

Retrieved 2020/06/02 06:21 UTC (1 month ago):

TAF LFRK 020500Z 0206/0306 33004KT CAVOK